sensor_id;sensor_type;location;lat;lon;timestamp;pressure;altitude;pressure_sealevel;temperature;humidity
31357;BME280;60001;48.404;11.738;2022-07-03T00:01:28;96578.75;;;17.10;68.51
31357;BME280;60001;48.404;11.738;2022-07-03T00:03:00;96584.09;;;17.10;68.57
31357;BME280;60001;48.404;11.738;2022-07-03T00:04:32;96585.16;;;17.09;68.37
31357;BME280;60001;48.404;11.738;2022-07-03T00:06:08;96587.34;;;17.07;69.05
31357;BME280;60001;48.404;11.738;2022-07-03T00:07:39;96583.88;;;17.06;69.05
31357;BME280;60001;48.404;11.738;2022-07-03T00:09:12;96586.84;;;17.05;68.99
31357;BME280;60001;48.404;11.738;2022-07-03T00:10:44;96586.03;;;17.04;69.44
31357;BME280;60001;48.404;11.738;2022-07-03T00:12:16;96588.97;;;17.03;68.98
31357;BME280;60001;48.404;11.738;2022-07-03T00:13:48;96583.94;;;17.01;69.42
31357;BME280;60001;48.404;11.738;2022-07-03T00:15:20;96589.56;;;16.99;69.02
31357;BME280;60001;48.404;11.738;2022-07-03T00:16:52;96592.50;;;16.98;69.49
31357;BME280;60001;48.404;11.738;2022-07-03T00:18:23;96596.53;;;16.95;68.92
31357;BME280;60001;48.404;11.738;2022-07-03T00:19:54;96590.69;;;16.93;69.15
31357;BME280;60001;48.404;11.738;2022-07-03T00:21:31;96587.53;;;16.91;69.57
31357;BME280;60001;48.404;11.738;2022-07-03T00:23:04;96589.66;;;16.89;70.03
31357;BME280;60001;48.404;11.738;2022-07-03T00:24:43;96588.06;;;16.88;69.85
31357;BME280;60001;48.404;11.738;2022-07-03T00:26:19;96590.53;;;16.85;70.23
31357;BME280;60001;48.404;11.738;2022-07-03T00:27:51;96589.75;;;16.84;70.50
31357;BME280;60001;48.404;11.738;2022-07-03T00:29:29;96596.16;;;16.83;70.16
31357;BME280;60001;48.404;11.738;2022-07-03T00:31:02;96593.19;;;16.85;70.41
31357;BME280;60001;48.404;11.738;2022-07-03T00:32:38;96588.94;;;16.84;69.83
31357;BME280;60001;48.404;11.738;2022-07-03T00:34:15;96584.97;;;16.81;70.69
31357;BME280;60001;48.404;11.738;2022-07-03T00:35:48;96584.66;;;16.83;70.23
31357;BME280;60001;48.404;11.738;2022-07-03T00:37:24;96585.50;;;16.83;70.22
31357;BME280;60001;48.404;11.738;2022-07-03T00:38:56;96584.66;;;16.83;70.15
31357;BME280;60001;48.404;11.738;2022-07-03T00:40:29;96587.63;;;16.81;70.16
31357;BME280;60001;48.404;11.738;2022-07-03T00:42:03;96581.50;;;16.81;70.26
31357;BME280;60001;48.404;11.738;2022-07-03T00:43:35;96574.38;;;16.76;70.30
31357;BME280;60001;48.404;11.738;2022-07-03T00:45:08;96571.97;;;16.75;70.13
31357;BME280;60001;48.404;11.738;2022-07-03T00:46:41;96570.16;;;16.70;70.71
31357;BME280;60001;48.404;11.738;2022-07-03T00:48:14;96568.78;;;16.73;70.52
31357;BME280;60001;48.404;11.738;2022-07-03T00:49:48;96579.75;;;16.71;70.75
31357;BME280;60001;48.404;11.738;2022-07-03T00:51:22;96572.84;;;16.70;71.05
31357;BME280;60001;48.404;11.738;2022-07-03T00:52:54;96573.88;;;16.69;70.89
31357;BME280;60001;48.404;11.738;2022-07-03T00:54:32;96582.16;;;16.67;70.75
31357;BME280;60001;48.404;11.738;2022-07-03T00:56:13;96577.38;;;16.64;70.57
31357;BME280;60001;48.404;11.738;2022-07-03T00:57:48;96573.13;;;16.63;71.23
31357;BME280;60001;48.404;11.738;2022-07-03T00:59:20;96563.56;;;16.62;71.60
31357;BME280;60001;48.404;11.738;2022-07-03T01:00:53;96567.28;;;16.61;71.50
31357;BME280;60001;48.404;11.738;2022-07-03T01:02:37;96549.25;;;16.53;71.40
31357;BME280;60001;48.404;11.738;2022-07-03T01:04:20;96567.00;;;16.63;71.82
31357;BME280;60001;48.404;11.738;2022-07-03T01:05:55;96567.00;;;16.63;71.63
31357;BME280;60001;48.404;11.738;2022-07-03T01:07:37;96563.56;;;16.62;71.51
31357;BME280;60001;48.404;11.738;2022-07-03T01:09:12;96561.69;;;16.63;72.13
31357;BME280;60001;48.404;11.738;2022-07-03T01:10:53;96561.69;;;16.63;71.62
31357;BME280;60001;48.404;11.738;2022-07-03T01:12:53;96565.41;;;16.62;71.29
31357;BME280;60001;48.404;11.738;2022-07-03T01:14:34;96564.09;;;16.59;70.76
31357;BME280;60001;48.404;11.738;2022-07-03T01:16:16;96570.53;;;16.58;70.89
31357;BME280;60001;48.404;11.738;2022-07-03T01:17:58;96565.75;;;16.55;71.31
31357;BME280;60001;48.404;11.738;2022-07-03T01:19:37;96559.91;;;16.53;71.16
31357;BME280;60001;48.404;11.738;2022-07-03T01:21:19;96561.56;;;16.49;71.79
31357;BME280;60001;48.404;11.738;2022-07-03T01:22:59;96559.44;;;16.46;71.73
31357;BME280;60001;48.404;11.738;2022-07-03T01:24:46;96562.41;;;16.44;71.58
31357;BME280;60001;48.404;11.738;2022-07-03T01:26:24;96553.63;;;16.44;72.23
31357;BME280;60001;48.404;11.738;2022-07-03T01:28:08;96545.16;;;16.37;71.61
31357;BME280;60001;48.404;11.738;2022-07-03T01:29:52;96552.88;;;16.38;71.76
31357;BME280;60001;48.404;11.738;2022-07-03T01:31:30;96553.66;;;16.39;71.82
31357;BME280;60001;48.404;11.738;2022-07-03T01:33:05;96550.19;;;16.38;72.71
31357;BME280;60001;48.404;11.738;2022-07-03T01:34:43;96558.97;;;16.39;72.02
31357;BME280;60001;48.404;11.738;2022-07-03T01:36:16;96545.94;;;16.37;72.19
31357;BME280;60001;48.404;11.738;2022-07-03T01:37:50;96554.22;;;16.36;71.48
31357;BME280;60001;48.404;11.738;2022-07-03T01:39:26;96544.69;;;16.30;72.02
31357;BME280;60001;48.404;11.738;2022-07-03T01:41:01;96558.53;;;16.32;72.35
31357;BME280;60001;48.404;11.738;2022-07-03T01:42:36;96550.56;;;16.27;72.27
31357;BME280;60001;48.404;11.738;2022-07-03T01:44:12;96556.97;;;16.26;72.64
31357;BME280;60001;48.404;11.738;2022-07-03T01:45:47;96557.06;;;16.21;72.22
31357;BME280;60001;48.404;11.738;2022-07-03T01:47:22;96565.03;;;16.21;72.49
31357;BME280;60001;48.404;11.738;2022-07-03T01:48:57;96560.25;;;16.17;73.11
31357;BME280;60001;48.404;11.738;2022-07-03T01:50:30;96564.28;;;16.15;72.75
31357;BME280;60001;48.404;11.738;2022-07-03T01:52:02;96567.50;;;16.12;73.49
31357;BME280;60001;48.404;11.738;2022-07-03T01:53:36;96564.03;;;16.11;73.27
31357;BME280;60001;48.404;11.738;2022-07-03T01:55:13;96562.16;;;16.12;73.36
31357;BME280;60001;48.404;11.738;2022-07-03T01:56:46;96557.13;;;16.10;73.09
31357;BME280;60001;48.404;11.738;2022-07-03T01:58:21;96564.84;;;16.12;73.67
31357;BME280;60001;48.404;11.738;2022-07-03T01:59:58;96547.59;;;16.04;73.46
31357;BME280;60001;48.404;11.738;2022-07-03T02:01:37;96554.19;;;16.12;73.41
31357;BME280;60001;48.404;11.738;2022-07-03T02:03:21;96562.16;;;16.12;73.24
31357;BME280;60001;48.404;11.738;2022-07-03T02:05:00;96567.78;;;16.10;73.32
31357;BME280;60001;48.404;11.738;2022-07-03T02:06:40;96569.16;;;16.08;72.85
31357;BME280;60001;48.404;11.738;2022-07-03T02:08:31;96572.63;;;16.03;72.88
31357;BME280;60001;48.404;11.738;2022-07-03T02:10:07;96566.81;;;16.01;73.17
31357;BME280;60001;48.404;11.738;2022-07-03T02:11:43;96567.34;;;15.98;73.50
31357;BME280;60001;48.404;11.738;2022-07-03T02:13:17;96560.44;;;15.97;73.58
31357;BME280;60001;48.404;11.738;2022-07-03T02:14:59;96550.63;;;15.93;73.21
31357;BME280;60001;48.404;11.738;2022-07-03T02:16:45;96564.22;;;15.91;73.79
31357;BME280;60001;48.404;11.738;2022-07-03T02:18:26;96550.38;;;15.89;73.91
31357;BME280;60001;48.404;11.738;2022-07-03T02:20:02;96554.63;;;15.90;73.58
31357;BME280;60001;48.404;11.738;2022-07-03T02:21:40;96554.91;;;15.88;73.97
31357;BME280;60001;48.404;11.738;2022-07-03T02:23:19;96554.13;;;15.88;73.83
31357;BME280;60001;48.404;11.738;2022-07-03T02:25:02;96554.66;;;15.85;73.84
31357;BME280;60001;48.404;11.738;2022-07-03T02:26:41;96546.16;;;15.83;73.72
31357;BME280;60001;48.404;11.738;2022-07-03T02:28:24;96547.75;;;15.84;74.58
31357;BME280;60001;48.404;11.738;2022-07-03T02:30:03;96554.16;;;15.83;74.35
31357;BME280;60001;48.404;11.738;2022-07-03T02:31:40;96557.59;;;15.88;74.91
31357;BME280;60001;48.404;11.738;2022-07-03T02:33:19;96556.78;;;15.88;74.98
31357;BME280;60001;48.404;11.738;2022-07-03T02:35:00;96558.09;;;15.90;74.98
31357;BME280;60001;48.404;11.738;2022-07-03T02:36:34;96554.91;;;15.88;74.19
31357;BME280;60001;48.404;11.738;2022-07-03T02:38:10;96549.59;;;15.88;74.56
31357;BME280;60001;48.404;11.738;2022-07-03T02:39:51;96555.72;;;15.89;74.23
31357;BME280;60001;48.404;11.738;2022-07-03T02:41:29;96550.97;;;15.86;73.98
31357;BME280;60001;48.404;11.738;2022-07-03T02:43:15;96549.88;;;15.87;74.31
31357;BME280;60001;48.404;11.738;2022-07-03T02:44:52;96566.13;;;15.85;74.13
31357;BME280;60001;48.404;11.738;2022-07-03T02:46:37;96562.16;;;15.83;74.44
31357;BME280;60001;48.404;11.738;2022-07-03T02:48:29;96565.09;;;15.81;74.09
31357;BME280;60001;48.404;11.738;2022-07-03T02:50:05;96564.84;;;15.78;73.88
31357;BME280;60001;48.404;11.738;2022-07-03T02:51:41;96564.63;;;15.74;73.63
31357;BME280;60001;48.404;11.738;2022-07-03T02:53:22;96574.22;;;15.70;73.45
31357;BME280;60001;48.404;11.738;2022-07-03T02:55:01;96577.16;;;15.69;73.26
31357;BME280;60001;48.404;11.738;2022-07-03T02:56:45;96580.41;;;15.66;73.49
31357;BME280;60001;48.404;11.738;2022-07-03T02:58:33;96574.81;;;15.62;73.42
31357;BME280;60001;48.404;11.738;2022-07-03T03:00:11;96583.84;;;15.61;73.50
31357;BME280;60001;48.404;11.738;2022-07-03T03:01:52;96578.81;;;15.59;73.92
31357;BME280;60001;48.404;11.738;2022-07-03T03:03:29;96583.34;;;15.59;73.97
31357;BME280;60001;48.404;11.738;2022-07-03T03:05:06;96577.22;;;15.58;74.48
31357;BME280;60001;48.404;11.738;2022-07-03T03:06:42;96571.09;;;15.58;74.34
31357;BME280;60001;48.404;11.738;2022-07-03T03:08:29;96576.41;;;15.58;74.56
31357;BME280;60001;48.404;11.738;2022-07-03T03:10:03;96579.88;;;15.58;74.29
31357;BME280;60001;48.404;11.738;2022-07-03T03:11:43;96577.47;;;15.57;74.49
31357;BME280;60001;48.404;11.738;2022-07-03T03:13:17;96583.06;;;15.55;74.50
31357;BME280;60001;48.404;11.738;2022-07-03T03:14:54;96587.88;;;15.53;74.16
31357;BME280;60001;48.404;11.738;2022-07-03T03:16:31;96582.84;;;15.52;74.37
31357;BME280;60001;48.404;11.738;2022-07-03T03:18:07;96579.38;;;15.51;74.69
31357;BME280;60001;48.404;11.738;2022-07-03T03:19:40;96587.38;;;15.51;75.03
31357;BME280;60001;48.404;11.738;2022-07-03T03:21:16;96576.72;;;15.51;74.93
31357;BME280;60001;48.404;11.738;2022-07-03T03:23:03;96586.59;;;15.51;75.30
31357;BME280;60001;48.404;11.738;2022-07-03T03:24:37;96578.63;;;15.46;74.55
31357;BME280;60001;48.404;11.738;2022-07-03T03:26:09;96579.13;;;15.48;74.58
31357;BME280;60001;48.404;11.738;2022-07-03T03:27:41;96579.41;;;15.46;75.05
31357;BME280;60001;48.404;11.738;2022-07-03T03:29:13;96583.41;;;15.44;74.80
31357;BME280;60001;48.404;11.738;2022-07-03T03:30:46;96583.69;;;15.42;75.33
31357;BME280;60001;48.404;11.738;2022-07-03T03:32:19;96591.94;;;15.41;75.10
31357;BME280;60001;48.404;11.738;2022-07-03T03:33:55;96591.72;;;15.37;75.74
31357;BME280;60001;48.404;11.738;2022-07-03T03:35:27;96597.56;;;15.39;75.73
31357;BME280;60001;48.404;11.738;2022-07-03T03:36:59;96595.41;;;15.41;75.63
31357;BME280;60001;48.404;11.738;2022-07-03T03:38:30;96598.06;;;15.41;75.64
31357;BME280;60001;48.404;11.738;2022-07-03T03:40:02;96594.31;;;15.42;75.76
31357;BME280;60001;48.404;11.738;2022-07-03T03:41:35;96599.66;;;15.42;75.42
31357;BME280;60001;48.404;11.738;2022-07-03T03:43:07;96599.13;;;15.40;75.14
31357;BME280;60001;48.404;11.738;2022-07-03T03:44:38;96601.78;;;15.40;75.34
31357;BME280;60001;48.404;11.738;2022-07-03T03:46:10;96607.13;;;15.40;75.56
31357;BME280;60001;48.404;11.738;2022-07-03T03:47:42;96600.22;;;15.39;75.69
31357;BME280;60001;48.404;11.738;2022-07-03T03:49:15;96601.53;;;15.36;75.44
31357;BME280;60001;48.404;11.738;2022-07-03T03:50:48;96605.28;;;15.35;75.07
31357;BME280;60001;48.404;11.738;2022-07-03T03:52:20;96601.31;;;15.33;75.29
31357;BME280;60001;48.404;11.738;2022-07-03T03:53:52;96599.72;;;15.32;75.06
31357;BME280;60001;48.404;11.738;2022-07-03T03:55:23;96603.16;;;15.32;75.55
31357;BME280;60001;48.404;11.738;2022-07-03T03:56:54;96611.94;;;15.33;75.86
31357;BME280;60001;48.404;11.738;2022-07-03T03:58:26;96603.97;;;15.33;75.80
31357;BME280;60001;48.404;11.738;2022-07-03T03:59:57;96603.16;;;15.32;75.55
31357;BME280;60001;48.404;11.738;2022-07-03T04:01:29;96611.16;;;15.32;76.13
31357;BME280;60001;48.404;11.738;2022-07-03T04:03:01;96607.97;;;15.30;75.84
31357;BME280;60001;48.404;11.738;2022-07-03T04:04:34;96615.69;;;15.32;76.02
31357;BME280;60001;48.404;11.738;2022-07-03T04:06:09;96614.09;;;15.31;76.19
31357;BME280;60001;48.404;11.738;2022-07-03T04:07:41;96605.06;;;15.27;76.65
31357;BME280;60001;48.404;11.738;2022-07-03T04:09:12;96615.69;;;15.32;76.62
31357;BME280;60001;48.404;11.738;2022-07-03T04:10:44;96606.91;;;15.26;76.95
31357;BME280;60001;48.404;11.738;2022-07-03T04:12:16;96618.34;;;15.32;77.39
31357;BME280;60001;48.404;11.738;2022-07-03T04:13:48;96611.16;;;15.32;77.32
31357;BME280;60001;48.404;11.738;2022-07-03T04:15:20;96612.19;;;15.36;77.41
31357;BME280;60001;48.404;11.738;2022-07-03T04:16:51;96618.84;;;15.39;77.50
31357;BME280;60001;48.404;11.738;2022-07-03T04:18:23;96618.28;;;15.42;77.99
31357;BME280;60001;48.404;11.738;2022-07-03T04:19:56;96627.59;;;15.45;77.73
31357;BME280;60001;48.404;11.738;2022-07-03T04:21:28;96621.19;;;15.46;77.92
31357;BME280;60001;48.404;11.738;2022-07-03T04:22:59;96621.44;;;15.49;77.81
31357;BME280;60001;48.404;11.738;2022-07-03T04:24:31;96624.38;;;15.48;77.86
31357;BME280;60001;48.404;11.738;2022-07-03T04:26:04;96628.09;;;15.47;78.55
31357;BME280;60001;48.404;11.738;2022-07-03T04:27:39;96614.53;;;15.48;78.51
31357;BME280;60001;48.404;11.738;2022-07-03T04:29:11;96620.34;;;15.50;78.50
31357;BME280;60001;48.404;11.738;2022-07-03T04:30:43;96611.03;;;15.53;78.58
31357;BME280;60001;48.404;11.738;2022-07-03T04:32:15;96615.00;;;15.55;78.63
31357;BME280;60001;48.404;11.738;2022-07-03T04:33:47;96617.13;;;15.58;78.92
31357;BME280;60001;48.404;11.738;2022-07-03T04:35:20;96611.53;;;15.65;78.92
31357;BME280;60001;48.404;11.738;2022-07-03T04:36:52;96618.94;;;15.73;79.35
31357;BME280;60001;48.404;11.738;2022-07-03T04:38:23;96613.53;;;15.83;79.45
31357;BME280;60001;48.404;11.738;2022-07-03T04:39:55;96618.81;;;15.94;79.60
31357;BME280;60001;48.404;11.738;2022-07-03T04:41:27;96615.50;;;16.07;79.64
31357;BME280;60001;48.404;11.738;2022-07-03T04:42:59;96613.53;;;16.17;78.83
31357;BME280;60001;48.404;11.738;2022-07-03T04:44:31;96613.19;;;16.29;78.54
31357;BME280;60001;48.404;11.738;2022-07-03T04:46:03;96625.56;;;16.44;78.59
31357;BME280;60001;48.404;11.738;2022-07-03T04:47:38;96623.25;;;16.61;78.03
31357;BME280;60001;48.404;11.738;2022-07-03T04:49:10;96613.28;;;16.77;76.79
31357;BME280;60001;48.404;11.738;2022-07-03T04:50:43;96610.94;;;16.94;76.74
31357;BME280;60001;48.404;11.738;2022-07-03T04:52:15;96621.44;;;17.10;76.29
31357;BME280;60001;48.404;11.738;2022-07-03T04:53:48;96613.81;;;17.22;75.66
31357;BME280;60001;48.404;11.738;2022-07-03T04:55:19;96616.66;;;17.31;76.00
31357;BME280;60001;48.404;11.738;2022-07-03T04:56:51;96621.63;;;17.37;75.97
31357;BME280;60001;48.404;11.738;2022-07-03T04:58:23;96627.22;;;17.41;75.21
31357;BME280;60001;48.404;11.738;2022-07-03T04:59:55;96621.28;;;17.44;75.31
31357;BME280;60001;48.404;11.738;2022-07-03T05:01:27;96626.84;;;17.47;74.09
31357;BME280;60001;48.404;11.738;2022-07-03T05:02:59;96623.16;;;17.43;73.96
31357;BME280;60001;48.404;11.738;2022-07-03T05:04:31;96632.50;;;17.46;73.01
31357;BME280;60001;48.404;11.738;2022-07-03T05:06:07;96630.09;;;17.44;72.87
31357;BME280;60001;48.404;11.738;2022-07-03T05:07:39;96630.97;;;17.40;72.46
31357;BME280;60001;48.404;11.738;2022-07-03T05:09:11;96633.09;;;17.38;72.72
31357;BME280;60001;48.404;11.738;2022-07-03T05:10:43;96629.63;;;17.37;71.90
31357;BME280;60001;48.404;11.738;2022-07-03T05:12:18;96632.53;;;17.41;72.46
31357;BME280;60001;48.404;11.738;2022-07-03T05:13:50;96637.28;;;17.44;72.26
31357;BME280;60001;48.404;11.738;2022-07-03T05:15:22;96635.16;;;17.46;71.86
31357;BME280;60001;48.404;11.738;2022-07-03T05:16:54;96635.84;;;17.51;72.06
31357;BME280;60001;48.404;11.738;2022-07-03T05:18:26;96637.97;;;17.54;71.73
31357;BME280;60001;48.404;11.738;2022-07-03T05:19:57;96637.03;;;17.64;72.01
31357;BME280;60001;48.404;11.738;2022-07-03T05:21:45;96649.94;;;17.81;71.49
31357;BME280;60001;48.404;11.738;2022-07-03T05:23:17;96643.56;;;17.96;71.35
31357;BME280;60001;48.404;11.738;2022-07-03T05:24:49;96639.16;;;18.05;71.05
31357;BME280;60001;48.404;11.738;2022-07-03T05:26:21;96637.38;;;18.14;70.64
31357;BME280;60001;48.404;11.738;2022-07-03T05:27:53;96638.09;;;18.20;70.73
31357;BME280;60001;48.404;11.738;2022-07-03T05:29:25;96636.06;;;18.30;70.96
31357;BME280;60001;48.404;11.738;2022-07-03T05:30:57;96640.53;;;18.35;70.84
31357;BME280;60001;48.404;11.738;2022-07-03T05:32:29;96641.72;;;18.43;70.67
31357;BME280;60001;48.404;11.738;2022-07-03T05:34:00;96638.97;;;18.48;71.04
31357;BME280;60001;48.404;11.738;2022-07-03T05:35:32;96645.91;;;18.49;70.29
31357;BME280;60001;48.404;11.738;2022-07-03T05:37:08;96638.69;;;18.49;70.04
31357;BME280;60001;48.404;11.738;2022-07-03T05:38:40;96646.69;;;18.49;70.04
31357;BME280;60001;48.404;11.738;2022-07-03T05:40:29;96642.06;;;18.55;70.17
31357;BME280;60001;48.404;11.738;2022-07-03T05:42:01;96645.38;;;18.66;71.08
31357;BME280;60001;48.404;11.738;2022-07-03T05:43:33;96640.16;;;18.74;69.42
31357;BME280;60001;48.404;11.738;2022-07-03T05:45:07;96639.06;;;18.75;69.15
31357;BME280;60001;48.404;11.738;2022-07-03T05:46:38;96640.88;;;18.80;68.91
31357;BME280;60001;48.404;11.738;2022-07-03T05:48:10;96642.06;;;18.87;68.73
31357;BME280;60001;48.404;11.738;2022-07-03T05:49:41;96646.41;;;18.97;68.85
31357;BME280;60001;48.404;11.738;2022-07-03T05:51:13;96647.22;;;19.11;69.53
31357;BME280;60001;48.404;11.738;2022-07-03T05:52:45;96647.34;;;19.20;68.43
31357;BME280;60001;48.404;11.738;2022-07-03T05:54:17;96648.59;;;19.23;68.75
31357;BME280;60001;48.404;11.738;2022-07-03T05:55:49;96649.88;;;19.25;68.12
31357;BME280;60001;48.404;11.738;2022-07-03T05:57:21;96651.19;;;19.28;68.36
31357;BME280;60001;48.404;11.738;2022-07-03T05:58:53;96654.84;;;19.32;68.85
31357;BME280;60001;48.404;11.738;2022-07-03T06:00:25;96653.16;;;19.36;68.57
31357;BME280;60001;48.404;11.738;2022-07-03T06:01:58;96652.06;;;19.37;68.53
31357;BME280;60001;48.404;11.738;2022-07-03T06:03:29;96642.94;;;19.38;68.92
31357;BME280;60001;48.404;11.738;2022-07-03T06:05:01;96651.28;;;19.36;68.70
31357;BME280;60001;48.404;11.738;2022-07-03T06:06:33;96655.94;;;19.44;69.59
31357;BME280;60001;48.404;11.738;2022-07-03T06:08:06;96652.06;;;19.51;69.22
31357;BME280;60001;48.404;11.738;2022-07-03T06:09:38;96658.31;;;19.60;69.45
31357;BME280;60001;48.404;11.738;2022-07-03T06:11:10;96654.13;;;19.67;69.67
31357;BME280;60001;48.404;11.738;2022-07-03T06:12:42;96659.88;;;19.75;69.00
31357;BME280;60001;48.404;11.738;2022-07-03T06:14:14;96660.88;;;19.79;69.09
31357;BME280;60001;48.404;11.738;2022-07-03T06:15:46;96654.47;;;19.88;68.75
31357;BME280;60001;48.404;11.738;2022-07-03T06:17:18;96669.84;;;19.96;69.46
31357;BME280;60001;48.404;11.738;2022-07-03T06:18:50;96660.56;;;20.03;68.75
31357;BME280;60001;48.404;11.738;2022-07-03T06:20:21;96663.03;;;20.13;68.85
31357;BME280;60001;48.404;11.738;2022-07-03T06:21:52;96665.47;;;20.23;68.94
31357;BME280;60001;48.404;11.738;2022-07-03T06:23:25;96660.78;;;20.29;68.06
31357;BME280;60001;48.404;11.738;2022-07-03T06:24:57;96655.00;;;20.35;68.14
31357;BME280;60001;48.404;11.738;2022-07-03T06:26:29;96662.06;;;20.45;68.14
31357;BME280;60001;48.404;11.738;2022-07-03T06:28:01;96656.63;;;20.59;68.60
31357;BME280;60001;48.404;11.738;2022-07-03T06:29:33;96663.63;;;20.77;67.49
31357;BME280;60001;48.404;11.738;2022-07-03T06:31:07;96659.31;;;20.98;67.84
31357;BME280;60001;48.404;11.738;2022-07-03T06:32:39;96660.69;;;21.27;67.07
31357;BME280;60001;48.404;11.738;2022-07-03T06:34:11;96657.00;;;21.62;66.38
31357;BME280;60001;48.404;11.738;2022-07-03T06:35:42;96661.34;;;21.98;64.70
31357;BME280;60001;48.404;11.738;2022-07-03T06:37:14;96661.53;;;22.19;63.17
31357;BME280;60001;48.404;11.738;2022-07-03T06:38:47;96658.34;;;22.43;62.70
31357;BME280;60001;48.404;11.738;2022-07-03T06:40:19;96661.91;;;22.73;62.83
31357;BME280;60001;48.404;11.738;2022-07-03T06:41:50;96664.06;;;23.06;62.40
31357;BME280;60001;48.404;11.738;2022-07-03T06:43:22;96657.28;;;23.38;61.57
31357;BME280;60001;48.404;11.738;2022-07-03T06:44:54;96656.94;;;23.69;60.36
31357;BME280;60001;48.404;11.738;2022-07-03T06:46:26;96663.75;;;23.96;59.36
31357;BME280;60001;48.404;11.738;2022-07-03T06:47:58;96659.97;;;24.30;58.79
31357;BME280;60001;48.404;11.738;2022-07-03T06:49:31;96660.16;;;24.46;57.77
31357;BME280;60001;48.404;11.738;2022-07-03T06:51:03;96659.53;;;24.61;57.05
31357;BME280;60001;48.404;11.738;2022-07-03T06:52:38;96657.69;;;24.86;56.91
31357;BME280;60001;48.404;11.738;2022-07-03T06:54:11;96659.69;;;25.22;56.17
31357;BME280;60001;48.404;11.738;2022-07-03T06:55:43;96661.25;;;25.60;55.20
31357;BME280;60001;48.404;11.738;2022-07-03T06:57:15;96667.22;;;25.78;54.04
31357;BME280;60001;48.404;11.738;2022-07-03T06:58:46;96662.00;;;25.97;54.01
31357;BME280;60001;48.404;11.738;2022-07-03T07:00:18;96664.53;;;26.18;53.24
31357;BME280;60001;48.404;11.738;2022-07-03T07:01:50;96666.38;;;26.42;52.63
31357;BME280;60001;48.404;11.738;2022-07-03T07:03:22;96665.31;;;26.59;52.10
31357;BME280;60001;48.404;11.738;2022-07-03T07:04:54;96670.56;;;26.83;51.90
31357;BME280;60001;48.404;11.738;2022-07-03T07:06:25;96662.34;;;27.08;51.34
31357;BME280;60001;48.404;11.738;2022-07-03T07:07:57;96673.25;;;27.43;50.08
31357;BME280;60001;48.404;11.738;2022-07-03T07:09:30;96664.59;;;27.69;47.98
31357;BME280;60001;48.404;11.738;2022-07-03T07:11:02;96654.38;;;27.81;48.08
31357;BME280;60001;48.404;11.738;2022-07-03T07:12:41;96662.84;;;27.96;47.87
31357;BME280;60001;48.404;11.738;2022-07-03T07:14:16;96655.16;;;28.17;47.16
31357;BME280;60001;48.404;11.738;2022-07-03T07:15:47;96657.66;;;28.45;46.96
31357;BME280;60001;48.404;11.738;2022-07-03T07:17:25;96664.72;;;28.69;45.94
31357;BME280;60001;48.404;11.738;2022-07-03T07:18:57;96658.19;;;28.74;45.44
31357;BME280;60001;48.404;11.738;2022-07-03T07:20:28;96658.25;;;28.97;45.62
31357;BME280;60001;48.404;11.738;2022-07-03T07:22:00;96661.97;;;29.11;45.79
31357;BME280;60001;48.404;11.738;2022-07-03T07:23:32;96661.81;;;29.24;45.04
31357;BME280;60001;48.404;11.738;2022-07-03T07:25:06;96666.16;;;29.51;44.96
31357;BME280;60001;48.404;11.738;2022-07-03T07:26:38;96660.47;;;29.90;43.71
31357;BME280;60001;48.404;11.738;2022-07-03T07:28:11;96657.00;;;30.19;43.45
31357;BME280;60001;48.404;11.738;2022-07-03T07:29:43;96662.06;;;30.21;42.50
31357;BME280;60001;48.404;11.738;2022-07-03T07:31:15;96659.28;;;30.17;42.22
31357;BME280;60001;48.404;11.738;2022-07-03T07:32:47;96655.69;;;30.10;42.04
31357;BME280;60001;48.404;11.738;2022-07-03T07:34:19;96655.06;;;30.20;42.03
31357;BME280;60001;48.404;11.738;2022-07-03T07:35:51;96652.47;;;30.30;41.88
31357;BME280;60001;48.404;11.738;2022-07-03T07:37:23;96650.25;;;30.40;41.36
31357;BME280;60001;48.404;11.738;2022-07-03T07:38:54;96652.41;;;30.61;42.20
31357;BME280;60001;48.404;11.738;2022-07-03T07:40:27;96651.81;;;30.74;41.61
31357;BME280;60001;48.404;11.738;2022-07-03T07:41:59;96652.84;;;30.66;40.25
31357;BME280;60001;48.404;11.738;2022-07-03T07:43:31;96649.81;;;30.68;40.68
31357;BME280;60001;48.404;11.738;2022-07-03T07:45:03;96644.94;;;30.54;40.46
31357;BME280;60001;48.404;11.738;2022-07-03T07:46:35;96642.56;;;30.49;39.53
31357;BME280;60001;48.404;11.738;2022-07-03T07:48:06;96643.63;;;30.41;40.70
31357;BME280;60001;48.404;11.738;2022-07-03T07:49:38;96649.88;;;30.45;40.65
31357;BME280;60001;48.404;11.738;2022-07-03T07:51:10;96653.94;;;30.58;40.95
31357;BME280;60001;48.404;11.738;2022-07-03T07:52:42;96660.94;;;30.93;40.15
31357;BME280;60001;48.404;11.738;2022-07-03T07:54:14;96652.78;;;30.96;40.27
31357;BME280;60001;48.404;11.738;2022-07-03T07:55:47;96656.63;;;30.92;39.88
31357;BME280;60001;48.404;11.738;2022-07-03T07:57:19;96648.91;;;30.60;40.21
31357;BME280;60001;48.404;11.738;2022-07-03T07:58:50;96659.75;;;30.56;41.70
31357;BME280;60001;48.404;11.738;2022-07-03T08:00:23;96647.00;;;30.64;41.28
31357;BME280;60001;48.404;11.738;2022-07-03T08:01:54;96652.84;;;30.66;38.02
31357;BME280;60001;48.404;11.738;2022-07-03T08:03:44;96661.00;;;31.00;38.87
31357;BME280;60001;48.404;11.738;2022-07-03T08:05:34;96658.19;;;31.30;39.70
31357;BME280;60001;48.404;11.738;2022-07-03T08:07:08;96645.06;;;31.50;38.83
31357;BME280;60001;48.404;11.738;2022-07-03T08:08:40;96651.47;;;31.72;38.50
31357;BME280;60001;48.404;11.738;2022-07-03T08:10:12;96652.38;;;31.97;37.52
31357;BME280;60001;48.404;11.738;2022-07-03T08:11:45;96650.84;;;32.00;37.80
31357;BME280;60001;48.404;11.738;2022-07-03T08:13:19;96649.50;;;31.76;37.05
31357;BME280;60001;48.404;11.738;2022-07-03T08:14:51;96643.97;;;31.61;37.30